Weather at Mukah Airport

Public forecast

Using degrees Celsius for public forecast. Weather courtesy of forecast.io.

Closest aviation weather report (METAR) to Mukah Airport

Closest report is Sibu Airport, 39.1 nm (72.5 km) S. Retrieved 2021/09/25 18:00 UTC (49 minutes ago):

WBGS 251800Z VRB02KT 9999 SCT016 25/24 Q1008

Closest aviation forecast (TAF) to Mukah Airport

Closest forecast is Sibu Airport, 39.1 nm (72.5 km) S. Retrieved 2021/09/25 18:00 UTC (49 minutes ago):

TAF WBGS 251700Z 2518/2618 01005KT 9999 SCT018 TEMPO 2609/2613 4000 TSRA FEW015CB